createdAt,value
2023-04-15T00:01:19.836Z,61.87
2023-04-15T00:03:48.544Z,68.50
2023-04-15T00:06:17.060Z,59.67
2023-04-15T00:08:45.201Z,65.60
2023-04-15T00:11:13.541Z,67.20
2023-04-15T00:13:42.704Z,59.20
2023-04-15T00:16:12.330Z,60.53
2023-04-15T00:18:42.227Z,64.57
2023-04-15T00:21:10.574Z,58.40
2023-04-15T00:23:38.780Z,70.93
2023-04-15T00:26:07.434Z,66.17
2023-04-15T00:28:35.600Z,53.13
2023-04-15T00:31:04.882Z,64.60
2023-04-15T00:33:33.393Z,64.10
2023-04-15T00:36:02.871Z,62.53
2023-04-15T00:38:31.048Z,59.83
2023-04-15T00:40:59.524Z,69.27
2023-04-15T00:43:29.684Z,57.67
2023-04-15T00:45:59.873Z,58.03
2023-04-15T00:48:28.436Z,60.60
2023-04-15T00:50:56.770Z,56.93
2023-04-15T00:53:26.450Z,53.20
2023-04-15T00:55:55.212Z,58.93
2023-04-15T00:58:24.025Z,49.50
2023-04-15T01:00:54.630Z,57.53
2023-04-15T01:03:23.076Z,56.67
2023-04-15T01:05:52.930Z,49.70
2023-04-15T01:08:21.127Z,54.53
2023-04-15T01:10:50.721Z,55.47
2023-04-15T01:13:18.845Z,50.80
2023-04-15T01:15:47.206Z,53.10
2023-04-15T01:18:15.596Z,53.00
2023-04-15T01:20:43.775Z,49.43
2023-04-15T01:23:12.112Z,50.73
2023-04-15T01:25:43.074Z,50.77
2023-04-15T01:28:11.288Z,50.83
2023-04-15T01:30:39.777Z,53.30
2023-04-15T01:33:07.904Z,47.77
2023-04-15T01:35:36.374Z,46.50
2023-04-15T01:38:07.757Z,51.30
2023-04-15T01:40:36.561Z,46.70
2023-04-15T01:43:06.132Z,53.53
2023-04-15T01:45:34.281Z,44.10
2023-04-15T01:48:05.810Z,37.90
2023-04-15T01:50:34.095Z,46.70
2023-04-15T01:53:02.234Z,42.47
2023-04-15T01:55:30.896Z,43.77
2023-04-15T01:57:59.059Z,47.90
2023-04-15T02:00:28.567Z,44.80
2023-04-15T02:02:57.050Z,46.83
2023-04-15T02:05:27.754Z,41.43
2023-04-15T02:07:55.906Z,40.27
2023-04-15T02:10:24.196Z,43.90
2023-04-15T02:12:52.428Z,49.67
2023-04-15T02:15:20.824Z,46.47
2023-04-15T02:17:55.331Z,43.77
2023-04-15T02:20:23.632Z,43.60
2023-04-15T02:22:52.270Z,40.80
2023-04-15T02:25:20.996Z,45.10
2023-04-15T02:27:49.340Z,40.47
2023-04-15T02:30:18.644Z,35.87
2023-04-15T02:32:47.160Z,45.17
2023-04-15T02:35:19.139Z,39.97
2023-04-15T02:37:47.271Z,38.30
2023-04-15T02:40:15.631Z,42.17
2023-04-15T02:42:44.312Z,47.20
2023-04-15T02:45:14.758Z,39.80
2023-04-15T02:47:44.497Z,41.73
2023-04-15T02:50:15.129Z,41.27
2023-04-15T02:52:45.842Z,39.70
2023-04-15T02:55:14.120Z,42.00
2023-04-15T02:57:42.703Z,37.13
2023-04-15T03:00:13.435Z,42.60
2023-04-15T03:02:44.332Z,37.23
2023-04-15T03:05:14.067Z,38.50
2023-04-15T03:07:50.062Z,40.07
2023-04-15T03:10:18.510Z,41.30
2023-04-15T03:12:48.152Z,34.80
2023-04-15T03:15:19.833Z,37.20
2023-04-15T03:17:51.257Z,38.53
2023-04-15T03:20:19.740Z,38.97
2023-04-15T03:22:50.919Z,38.80
2023-04-15T03:25:21.608Z,34.80
2023-04-15T03:27:49.836Z,35.23
2023-04-15T03:30:18.687Z,37.97
2023-04-15T03:32:47.511Z,39.07
2023-04-15T03:35:16.449Z,33.97
2023-04-15T03:37:44.760Z,40.50
2023-04-15T03:40:14.536Z,33.50
2023-04-15T03:42:42.736Z,35.80
2023-04-15T03:45:11.901Z,37.93
2023-04-15T03:47:40.080Z,32.10
2023-04-15T03:50:09.235Z,34.30
2023-04-15T03:52:37.730Z,32.40
2023-04-15T03:55:06.653Z,34.80
2023-04-15T03:57:38.961Z,32.73
2023-04-15T04:00:09.298Z,32.63
2023-04-15T04:02:40.206Z,31.43
2023-04-15T04:05:09.215Z,33.70
2023-04-15T04:07:37.601Z,30.40
2023-04-15T04:10:06.619Z,35.10
2023-04-15T04:12:36.320Z,32.60
2023-04-15T04:15:04.863Z,27.50
2023-04-15T04:17:33.099Z,28.47
2023-04-15T04:20:01.271Z,28.40
2023-04-15T04:22:29.449Z,24.33
2023-04-15T04:24:59.389Z,23.20
2023-04-15T04:27:27.540Z,21.77
2023-04-15T04:29:57.028Z,24.83
2023-04-15T04:32:25.215Z,19.27
2023-04-15T04:34:53.351Z,21.13
2023-04-15T04:37:21.461Z,21.50
2023-04-15T04:39:49.628Z,17.63
2023-04-15T04:42:17.792Z,21.60
2023-04-15T04:44:46.411Z,17.77
2023-04-15T04:47:16.027Z,18.87
2023-04-15T04:49:44.189Z,17.37
2023-04-15T04:52:12.918Z,15.53
2023-04-15T04:54:41.060Z,17.93
2023-04-15T04:57:09.232Z,16.83
2023-04-15T04:59:38.082Z,15.17
2023-04-15T05:02:06.631Z,16.37
2023-04-15T05:04:37.214Z,16.00
2023-04-15T05:07:05.362Z,16.30
2023-04-15T05:09:36.172Z,15.50
2023-04-15T05:12:04.982Z,15.20
2023-04-15T05:14:33.309Z,14.70
2023-04-15T05:17:01.522Z,14.63
2023-04-15T05:19:29.671Z,18.20
2023-04-15T05:21:59.147Z,16.73
2023-04-15T05:24:27.399Z,13.20
2023-04-15T05:26:56.213Z,17.27
2023-04-15T05:29:24.488Z,14.90
2023-04-15T05:31:52.659Z,14.83
2023-04-15T05:34:20.787Z,14.40
2023-04-15T05:36:49.000Z,18.47
2023-04-15T05:39:18.444Z,17.33
2023-04-15T05:41:46.689Z,17.90
2023-04-15T05:44:14.858Z,17.03
2023-04-15T05:46:43.339Z,19.80
2023-04-15T05:49:12.036Z,15.67
2023-04-15T05:51:40.240Z,15.40
2023-04-15T05:54:08.393Z,15.47
2023-04-15T05:56:37.997Z,15.17
2023-04-15T05:59:06.620Z,17.63
2023-04-15T06:01:35.561Z,15.33
2023-04-15T06:04:03.758Z,16.20
2023-04-15T06:06:32.479Z,17.50
2023-04-15T06:09:00.789Z,14.53
2023-04-15T06:11:29.209Z,17.50
2023-04-15T06:13:59.042Z,15.83
2023-04-15T06:16:27.339Z,15.60
2023-04-15T06:18:55.471Z,16.00
2023-04-15T06:21:23.645Z,17.83
2023-04-15T06:23:51.850Z,14.53
2023-04-15T06:26:19.985Z,16.23
2023-04-15T06:28:48.231Z,15.70
2023-04-15T06:31:17.742Z,17.80
2023-04-15T06:33:45.973Z,14.00
2023-04-15T06:36:14.146Z,16.30
2023-04-15T06:38:42.339Z,16.10
2023-04-15T06:41:10.755Z,15.00
2023-04-15T06:43:39.350Z,16.20
2023-04-15T06:46:07.510Z,15.77
2023-04-15T06:48:37.262Z,14.50
2023-04-15T06:51:05.604Z,17.03
2023-04-15T06:53:33.918Z,15.63
2023-04-15T06:56:02.052Z,18.93
2023-04-15T06:58:30.201Z,16.20
2023-04-15T07:00:58.345Z,18.90
2023-04-15T07:03:27.110Z,15.67
2023-04-15T07:05:56.576Z,16.10
2023-04-15T07:08:25.626Z,19.30
2023-04-15T07:10:54.160Z,16.77
2023-04-15T07:13:22.636Z,20.43
2023-04-15T07:15:50.811Z,20.10
2023-04-15T07:18:18.951Z,18.23
2023-04-15T07:20:47.077Z,20.20
2023-04-15T07:23:16.606Z,18.40
2023-04-15T07:25:44.752Z,17.87
2023-04-15T07:28:12.885Z,18.83
2023-04-15T07:30:41.639Z,17.97
2023-04-15T07:33:10.039Z,19.23
2023-04-15T07:35:38.201Z,16.60
2023-04-15T07:38:06.890Z,18.80
2023-04-15T07:40:36.382Z,17.67
2023-04-15T07:43:04.623Z,20.40
2023-04-15T07:45:32.903Z,19.10
2023-04-15T07:48:01.778Z,18.67
2023-04-15T07:50:29.974Z,19.30
2023-04-15T07:52:58.445Z,20.53
2023-04-15T07:55:28.151Z,18.80
2023-04-15T07:57:57.763Z,21.43
2023-04-15T08:00:26.834Z,21.23
2023-04-15T08:02:57.412Z,18.70
2023-04-15T08:05:25.780Z,22.70
2023-04-15T08:07:54.043Z,18.07
2023-04-15T08:10:22.813Z,20.07
2023-04-15T08:12:54.245Z,20.93
2023-04-15T08:15:23.966Z,20.13
2023-04-15T08:17:52.264Z,22.00
2023-04-15T08:20:20.668Z,18.10
2023-04-15T08:22:52.563Z,21.67
2023-04-15T08:25:21.519Z,23.10
2023-04-15T08:27:49.709Z,20.97
2023-04-15T08:30:17.889Z,20.77
2023-04-15T08:32:48.136Z,21.93
2023-04-15T08:35:16.491Z,21.83
2023-04-15T08:37:44.624Z,22.07
2023-04-15T08:40:13.619Z,19.70
2023-04-15T08:42:45.655Z,19.40
2023-04-15T08:45:14.578Z,23.97
2023-04-15T08:47:44.590Z,21.77
2023-04-15T08:50:16.167Z,22.13
2023-04-15T08:52:44.428Z,21.50
2023-04-15T08:55:14.438Z,20.47
2023-04-15T08:57:42.600Z,21.13
2023-04-15T09:00:12.484Z,19.33
2023-04-15T09:02:41.517Z,20.80
2023-04-15T09:05:10.138Z,20.80
2023-04-15T09:07:39.593Z,19.13
2023-04-15T09:10:09.050Z,19.10
2023-04-15T09:12:37.579Z,20.70
2023-04-15T09:15:06.679Z,19.90
2023-04-15T09:17:35.629Z,20.10
2023-04-15T09:20:13.008Z,20.13
2023-04-15T09:22:43.226Z,19.43
2023-04-15T09:25:28.033Z,19.57
2023-04-15T09:27:57.520Z,19.77
2023-04-15T09:30:26.536Z,20.90
2023-04-15T09:32:56.711Z,18.53
2023-04-15T09:35:26.228Z,17.80
2023-04-15T09:38:03.936Z,20.50
2023-04-15T09:40:32.726Z,19.17
2023-04-15T09:43:01.978Z,20.00
2023-04-15T09:45:30.631Z,18.57
2023-04-15T09:47:59.738Z,18.27
2023-04-15T09:50:29.422Z,18.23
2023-04-15T09:52:59.649Z,18.00
2023-04-15T09:55:27.788Z,18.67
2023-04-15T09:57:55.925Z,20.03
2023-04-15T10:00:24.040Z,19.63
2023-04-15T10:02:53.296Z,19.07
2023-04-15T10:05:23.419Z,19.13
2023-04-15T10:07:51.681Z,25.40
2023-04-15T10:10:21.556Z,18.33
2023-04-15T10:12:50.888Z,19.23
2023-04-15T10:15:20.075Z,20.60
2023-04-15T10:17:51.383Z,19.03
2023-04-15T10:20:20.700Z,20.57
2023-04-15T10:22:49.744Z,18.30
2023-04-15T10:25:18.392Z,20.10
2023-04-15T10:27:49.509Z,16.20
2023-04-15T10:30:18.687Z,17.13
2023-04-15T10:32:47.402Z,19.23
2023-04-15T10:35:16.308Z,18.33
2023-04-15T10:37:44.459Z,17.97
2023-04-15T10:40:27.349Z,16.50
2023-04-15T10:42:57.387Z,18.03
2023-04-15T10:45:28.244Z,16.70
2023-04-15T10:47:58.142Z,16.47
2023-04-15T10:50:29.907Z,18.47
2023-04-15T10:52:58.561Z,15.97
2023-04-15T10:55:28.156Z,16.20
2023-04-15T10:58:01.476Z,16.63
2023-04-15T11:00:30.835Z,17.17
2023-04-15T11:03:01.273Z,16.70
2023-04-15T11:05:53.706Z,17.73
2023-04-15T11:08:54.621Z,16.03
2023-04-15T11:11:22.863Z,17.60
2023-04-15T11:13:54.203Z,15.50
2023-04-15T11:16:23.082Z,17.57
2023-04-15T11:18:55.948Z,19.17
2023-04-15T11:21:27.024Z,16.33
2023-04-15T11:23:55.145Z,17.17
2023-04-15T11:26:28.046Z,15.50
2023-04-15T11:28:59.775Z,16.00
2023-04-15T11:31:29.538Z,14.90
2023-04-15T11:33:59.906Z,17.90
2023-04-15T11:36:29.734Z,16.03
2023-04-15T11:38:59.781Z,15.20
2023-04-15T11:41:27.922Z,16.50
2023-04-15T11:43:57.454Z,17.57
2023-04-15T11:46:31.254Z,16.17
2023-04-15T11:49:00.214Z,14.87
2023-04-15T11:51:33.604Z,15.53
2023-04-15T11:54:01.923Z,15.60
2023-04-15T11:56:30.287Z,14.27
2023-04-15T11:59:00.518Z,21.30
2023-04-15T12:01:35.121Z,15.73
2023-04-15T12:04:04.570Z,14.57
2023-04-15T12:06:35.054Z,17.07
2023-04-15T12:09:09.310Z,15.53
2023-04-15T12:11:43.438Z,16.20
2023-04-15T12:14:17.020Z,15.80
2023-04-15T12:16:48.759Z,15.33
2023-04-15T12:19:23.521Z,17.50
2023-04-15T12:21:52.280Z,14.40
2023-04-15T12:24:23.243Z,15.03
2023-04-15T12:26:53.189Z,15.13
2023-04-15T12:29:29.016Z,13.67
2023-04-15T12:31:59.004Z,13.43
2023-04-15T12:34:29.504Z,13.80
2023-04-15T12:36:59.699Z,14.07
2023-04-15T12:39:31.206Z,15.93
2023-04-15T12:42:00.534Z,15.40
2023-04-15T12:44:30.250Z,13.90
2023-04-15T12:46:58.753Z,13.43
2023-04-15T12:49:27.642Z,13.63
2023-04-15T12:51:57.465Z,16.63
2023-04-15T12:54:25.595Z,13.43
2023-04-15T12:56:54.186Z,13.93
2023-04-15T12:59:24.051Z,13.27
2023-04-15T13:01:54.627Z,13.53
2023-04-15T13:04:23.525Z,13.73
2023-04-15T13:06:51.784Z,14.70
2023-04-15T13:09:19.928Z,12.20
2023-04-15T13:11:48.098Z,10.90
2023-04-15T13:14:16.346Z,11.97
2023-04-15T13:16:44.476Z,13.23
2023-04-15T13:19:14.332Z,12.20
2023-04-15T13:21:42.556Z,14.20
2023-04-15T13:24:11.767Z,12.33
2023-04-15T13:26:39.906Z,13.17
2023-04-15T13:29:08.114Z,12.33
2023-04-15T13:31:36.497Z,12.87
2023-04-15T13:34:04.960Z,11.27
2023-04-15T13:36:34.652Z,12.40
2023-04-15T13:39:03.262Z,11.47
2023-04-15T13:41:32.200Z,11.40
2023-04-15T13:44:00.588Z,12.53
2023-04-15T13:46:28.715Z,10.10
2023-04-15T13:48:57.686Z,10.00
2023-04-15T13:51:29.607Z,11.27
2023-04-15T13:53:59.225Z,10.17
2023-04-15T13:56:27.370Z,9.47
2023-04-15T13:58:58.912Z,9.43
2023-04-15T14:01:27.299Z,10.20
2023-04-15T14:03:55.794Z,8.70
2023-04-15T14:06:24.064Z,8.67
2023-04-15T14:08:53.004Z,9.40
2023-04-15T14:11:22.576Z,9.23
2023-04-15T14:13:50.711Z,7.90
2023-04-15T14:16:18.911Z,8.47
2023-04-15T14:18:47.140Z,8.27
2023-04-15T14:21:15.299Z,9.20
2023-04-15T14:23:43.870Z,7.73
2023-04-15T14:26:12.065Z,9.90
2023-04-15T14:28:42.847Z,8.37
2023-04-15T14:31:11.081Z,7.50
2023-04-15T14:33:39.314Z,8.33
2023-04-15T14:36:08.132Z,7.50
2023-04-15T14:38:38.454Z,7.33
2023-04-15T14:41:07.225Z,9.97
2023-04-15T14:43:35.861Z,8.00
2023-04-15T14:46:05.533Z,9.43
2023-04-15T14:48:33.721Z,9.10
2023-04-15T14:51:02.189Z,8.53
2023-04-15T14:53:30.366Z,8.40
2023-04-15T14:55:58.555Z,8.40
2023-04-15T14:58:35.389Z,7.70
2023-04-15T15:01:04.756Z,7.70
2023-04-15T15:03:33.316Z,7.53
2023-04-15T15:06:01.568Z,7.50
2023-04-15T15:08:30.053Z,7.63
2023-04-15T15:10:58.196Z,8.13
2023-04-15T15:13:26.377Z,6.90
2023-04-15T15:15:56.134Z,7.57
2023-04-15T15:18:25.507Z,7.93
2023-04-15T15:20:53.674Z,7.50
2023-04-15T15:23:22.008Z,7.27
2023-04-15T15:25:50.338Z,10.40
2023-04-15T15:28:18.507Z,9.60
2023-04-15T15:30:46.632Z,8.40
2023-04-15T15:33:16.128Z,8.07
2023-04-15T15:35:45.079Z,7.90
2023-04-15T15:38:13.529Z,8.20
2023-04-15T15:40:41.698Z,8.83
2023-04-15T15:43:09.930Z,8.30
2023-04-15T15:45:38.068Z,9.33
2023-04-15T15:48:07.428Z,9.00
2023-04-15T15:50:37.019Z,7.63
2023-04-15T15:53:05.353Z,7.93
2023-04-15T15:55:33.756Z,9.57
2023-04-15T15:58:01.873Z,8.70
2023-04-15T16:00:30.038Z,9.67
2023-04-15T16:05:29.392Z,9.87
2023-04-15T16:07:58.902Z,9.33
2023-04-15T16:10:27.603Z,9.50
2023-04-15T16:12:55.808Z,9.60
2023-04-15T16:15:24.253Z,9.07
2023-04-15T16:17:52.461Z,10.10
2023-04-15T16:20:20.669Z,10.80
2023-04-15T16:22:49.003Z,8.87
2023-04-15T16:25:18.917Z,8.93
2023-04-15T16:28:00.812Z,10.00
2023-04-15T16:30:31.574Z,9.37
2023-04-15T16:32:59.757Z,11.23
2023-04-15T16:35:28.398Z,9.67
2023-04-15T16:37:56.583Z,10.00
2023-04-15T16:40:26.567Z,10.40
2023-04-15T16:42:55.776Z,8.57
2023-04-15T16:45:23.912Z,9.77
2023-04-15T16:47:52.077Z,11.70
2023-04-15T16:50:20.466Z,13.13
2023-04-15T16:52:48.648Z,10.70
2023-04-15T16:55:16.778Z,9.23
2023-04-15T16:58:01.186Z,10.13
2023-04-15T17:00:31.408Z,9.90
2023-04-15T17:03:00.230Z,9.80
2023-04-15T17:05:29.162Z,10.10
2023-04-15T17:07:57.406Z,9.50
2023-04-15T17:10:25.827Z,11.23
2023-04-15T17:12:56.879Z,9.10
2023-04-15T17:15:25.452Z,10.00
2023-04-15T17:17:53.794Z,8.47
2023-04-15T17:20:22.054Z,10.10
2023-04-15T17:22:50.362Z,10.40
2023-04-15T17:25:19.416Z,8.80
2023-04-15T17:27:47.720Z,8.23
2023-04-15T17:30:17.449Z,8.37
2023-04-15T17:32:45.862Z,8.57
2023-04-15T17:35:14.066Z,8.43
2023-04-15T17:37:42.204Z,8.77
2023-04-15T17:40:11.356Z,8.77
2023-04-15T17:42:39.531Z,7.73
2023-04-15T17:45:08.951Z,8.10
2023-04-15T17:47:38.488Z,9.10
2023-04-15T17:50:08.381Z,7.77
2023-04-15T17:52:36.649Z,8.83
2023-04-15T17:55:05.281Z,8.77
2023-04-15T17:57:33.446Z,8.63
2023-04-15T18:00:01.730Z,8.53
2023-04-15T18:02:29.984Z,8.07
2023-04-15T18:04:59.622Z,9.20
2023-04-15T18:07:27.878Z,10.23
2023-04-15T18:09:56.360Z,10.07
2023-04-15T18:12:24.580Z,12.60
2023-04-15T18:14:52.814Z,11.57
2023-04-15T18:17:21.226Z,16.33
2023-04-15T18:19:49.355Z,12.63
2023-04-15T18:22:18.862Z,11.43
2023-04-15T18:24:46.986Z,12.10
2023-04-15T18:27:15.134Z,12.33
2023-04-15T18:29:44.015Z,11.00
2023-04-15T18:32:12.152Z,10.50
2023-04-15T18:34:42.775Z,10.13
2023-04-15T18:37:11.087Z,9.07
2023-04-15T18:39:40.631Z,8.17
2023-04-15T18:42:08.797Z,8.67
2023-04-15T18:44:36.954Z,6.87
2023-04-15T18:47:05.312Z,7.70
2023-04-15T18:49:33.997Z,7.63
2023-04-15T18:52:02.391Z,8.30
2023-04-15T18:54:30.690Z,7.67
2023-04-15T18:57:00.323Z,10.57
2023-04-15T18:59:30.074Z,9.10
2023-04-15T19:01:59.301Z,9.00
2023-04-15T19:04:28.810Z,8.67
2023-04-15T19:06:58.773Z,10.30
2023-04-15T19:09:27.256Z,8.90
2023-04-15T19:11:56.807Z,9.07
2023-04-15T19:14:26.392Z,11.07
2023-04-15T19:16:54.615Z,10.23
2023-04-15T19:19:22.788Z,10.50
2023-04-15T19:21:51.238Z,13.83
2023-04-15T19:24:20.016Z,12.50
2023-04-15T19:26:50.064Z,10.73
2023-04-15T19:29:18.645Z,13.73
2023-04-15T19:31:48.228Z,13.60
2023-04-15T19:34:16.589Z,14.20
2023-04-15T19:36:44.793Z,14.43
2023-04-15T19:39:13.564Z,13.90
2023-04-15T19:41:41.851Z,13.03
2023-04-15T19:44:12.729Z,15.57
2023-04-15T19:46:41.058Z,15.80
2023-04-15T19:49:10.798Z,15.40
2023-04-15T19:51:38.951Z,14.70
2023-04-15T19:54:07.121Z,18.33
2023-04-15T19:56:35.408Z,15.97
2023-04-15T19:59:03.891Z,17.03
2023-04-15T20:01:32.882Z,16.00
2023-04-15T20:04:03.438Z,15.77
2023-04-15T20:06:33.074Z,16.23
2023-04-15T20:09:02.026Z,16.60
2023-04-15T20:12:46.256Z,17.37
2023-04-15T20:14:18.519Z,16.43
2023-04-15T20:16:46.748Z,16.73
2023-04-15T20:19:14.873Z,18.70
2023-04-15T20:21:44.461Z,18.60
2023-04-15T20:24:12.696Z,17.27
2023-04-15T20:26:40.823Z,17.37
2023-04-15T20:29:09.029Z,19.70
2023-04-15T20:31:37.452Z,19.67
2023-04-15T20:34:05.767Z,21.30
2023-04-15T20:36:34.303Z,18.80
2023-04-15T20:39:04.162Z,26.50
2023-04-15T20:41:32.589Z,17.43
2023-04-15T20:44:00.738Z,18.13
2023-04-15T20:46:29.111Z,17.57
2023-04-15T20:48:57.270Z,16.70
2023-04-15T20:51:27.148Z,16.13
2023-04-15T20:53:55.567Z,15.00
2023-04-15T20:56:25.112Z,17.43
2023-04-15T20:58:53.370Z,16.33
2023-04-15T21:01:21.632Z,14.97
2023-04-15T21:03:49.996Z,15.90
2023-04-15T21:06:18.239Z,13.73
2023-04-15T21:08:46.386Z,14.43
2023-04-15T21:11:25.679Z,13.97
2023-04-15T21:14:07.671Z,13.93
2023-04-15T21:16:35.903Z,15.07
2023-04-15T21:19:04.516Z,16.80
2023-04-15T21:21:32.936Z,15.60
2023-04-15T21:24:01.178Z,17.00
2023-04-15T21:26:29.326Z,18.00
2023-04-15T21:28:57.566Z,16.43
2023-04-15T21:31:27.058Z,18.47
2023-04-15T21:33:55.210Z,16.50
2023-04-15T21:36:23.470Z,18.57
2023-04-15T21:38:51.751Z,20.30
2023-04-15T21:41:19.989Z,19.40
2023-04-15T21:43:48.154Z,19.60
2023-04-15T21:46:20.847Z,19.70
2023-04-15T21:48:54.834Z,22.10
2023-04-15T21:51:23.001Z,18.63
2023-04-15T21:53:52.547Z,20.77
2023-04-15T21:56:23.145Z,20.50
2023-04-15T21:58:52.079Z,21.87
2023-04-15T22:01:20.216Z,21.83
2023-04-15T22:03:48.616Z,18.60
2023-04-15T22:06:18.361Z,19.60
2023-04-15T22:08:56.251Z,20.10
2023-04-15T22:11:28.229Z,20.50
2023-04-15T22:13:57.635Z,24.17
2023-04-15T22:16:26.680Z,25.90
2023-04-15T22:18:55.243Z,20.93
2023-04-15T22:21:24.963Z,22.37
2023-04-15T22:24:37.274Z,19.30
2023-04-15T22:26:42.761Z,19.60
2023-04-15T22:29:11.099Z,17.10
2023-04-15T22:31:39.311Z,16.00
2023-04-15T22:34:08.079Z,18.90
2023-04-15T22:36:37.783Z,14.23
2023-04-15T22:39:06.273Z,18.50
2023-04-15T22:41:34.824Z,15.30
2023-04-15T22:44:02.939Z,15.90
2023-04-15T22:46:31.256Z,15.47
2023-04-15T22:48:59.500Z,18.80
2023-04-15T22:51:28.086Z,16.57
2023-04-15T22:53:57.622Z,15.10
2023-04-15T22:56:26.111Z,17.83
2023-04-15T22:58:54.359Z,15.70
2023-04-15T23:01:22.527Z,15.63
2023-04-15T23:03:55.877Z,15.17
2023-04-15T23:06:25.880Z,17.20
2023-04-15T23:08:54.606Z,16.60
2023-04-15T23:11:24.096Z,16.70
2023-04-15T23:13:53.059Z,15.60
2023-04-15T23:16:21.270Z,16.53
2023-04-15T23:18:49.547Z,17.87
2023-04-15T23:21:17.960Z,21.73
2023-04-15T23:23:46.085Z,22.27
2023-04-15T23:26:14.319Z,19.87
2023-04-15T23:28:43.810Z,21.43
2023-04-15T23:31:12.142Z,26.57
2023-04-15T23:33:40.389Z,23.53
2023-04-15T23:36:08.732Z,22.70
2023-04-15T23:38:37.247Z,20.40
2023-04-15T23:41:05.602Z,20.30
2023-04-15T23:43:33.796Z,21.80
2023-04-15T23:46:03.314Z,23.83
2023-04-15T23:48:32.656Z,21.63
2023-04-15T23:51:01.619Z,22.30
2023-04-15T23:53:30.888Z,20.13
2023-04-15T23:55:58.996Z,22.03
2023-04-15T23:58:27.128Z,20.53
